KTAD Airport Information

Runway Information
Runway 03 Length 5498 ft width 100 ft
Elevation 5755 ft Threshold 0 ft Heading 45
Runway 21 Length 5498 ft Width 100 ft
Elevation 5734 ft Threshold 0 ft Heading 225
Runway 09 Length 5500 ft width 100 ft
Elevation 5760 ft Threshold 0 ft Heading 106
Runway 27 Length 5500 ft Width 100 ft
Elevation 5748 ft Threshold 0 ft Heading 286
Airport Frequencies
Type ASOS Name ASOS Frequency 119.025 MHZ
Type CNTR Name DENVER CNT Frequency 128.375 MHZ
Type RDO Name DENVER RDO Frequency 122.2 MHZ
Type UNIC Name CTAF/UNICO Frequency 122.8 MHZ
Airport Navaids
Airport Weather Information & NOTAM
ADDS - METARS form results

(1257 UTC 14 December 2019)
Data provider http://aviationweather.gov/metar/data/
 
METAR text: KTAD 141254Z AUTO 00000KT 10SM CLR M04/M09 A2977 RMK AO2 SLP081 T10441089
Conditions at: KTAD (TRINIDAD/ANIMAS , CO, US) observed 1254 UTC 14 December 2019
Temperature: -4.4°C (24°F)
Dewpoint: -8.9°C (16°F) [RH = 71%]
Pressure (altimeter): 29.77 inches Hg (1008.2 mb)
[Sea-level pressure: 1008.1 mb]
Winds: calm
Visibility: 10 or more miles (16+ km)
Ceiling: at least 12,000 feet AGL
Clouds: sky clear below 12,000 feet AGL
Weather: automated observation with no human augmentation;
there may or may not be significant weather present at this time